X  Tanca Dades meteorològiques de l'aviació METAR     LIPX Verona-Villafranca Valerio Catullo Airport
Temperatura
8°C Temperatura
4°C Rosada
76% Humitat



Vent
3 M/S
7 MPH
11 KM/H
6 NUS



110°
ESE
Condicions actuals

Sense núvols Sense núvols
Pressió 1006.77 (hPa) - 29.73 (inHg)
Visibilitat 6 (milla) - 9.7 (km)
Aeroport
Codi aeroport LIPX

Ubicació: Verona-Villafranca Valerio Catullo Airport
Distància: 0 (km)

Metar:
LIPX 162150Z 11006KT 080V140 CAVOK 08/04 Q1007

Temps: 16-04-2024 21:50 CEST